Time,TemperatureF,DewpointF,PressureIn,WindDirection,WindDirectionDegrees,WindSpeedMPH,WindSpeedGustMPH,Humidity,HourlyPrecipIn,Conditions,Clouds,dailyrainin,SoftwareType,DateUTC
2013-06-06 00:00:00,68.2,63.9,29.81,North,355,0.0,0.0,86,0.00,,,0.00,Wunderground v.1.15,2013-06-06 04:00:00,
2013-06-06 00:02:00,68.2,64.2,29.81,North,355,0.0,0.0,87,0.00,,,0.00,Wunderground v.1.15,2013-06-06 04:02:00,
2013-06-06 00:04:00,68.3,64.3,29.81,North,355,0.0,0.0,87,0.00,,,0.00,Wunderground v.1.15,2013-06-06 04:04:00,
2013-06-06 00:06:00,68.2,64.2,29.81,North,355,0.0,0.0,87,0.00,,,0.00,Wunderground v.1.15,2013-06-06 04:06:00,
2013-06-06 00:12:00,68.1,64.1,29.81,North,355,0.0,0.0,87,0.00,,,0.00,Wunderground v.1.15,2013-06-06 04:12:00,
2013-06-06 00:18:00,68.0,64.3,29.80,North,355,0.0,0.0,88,0.00,,,0.00,Wunderground v.1.15,2013-06-06 04:18:00,
2013-06-06 00:24:00,68.0,64.0,29.80,North,355,0.0,0.0,87,0.00,,,0.00,Wunderground v.1.15,2013-06-06 04:24:00,
2013-06-06 00:28:00,67.9,64.2,29.80,North,355,0.0,0.0,88,0.00,,,0.00,Wunderground v.1.15,2013-06-06 04:28:00,
2013-06-06 00:34:00,67.9,64.2,29.80,North,355,0.0,0.0,88,0.00,,,0.00,Wunderground v.1.15,2013-06-06 04:34:00,
2013-06-06 00:40:00,67.9,64.2,29.79,North,355,0.0,0.0,88,0.00,,,0.00,Wunderground v.1.15,2013-06-06 04:40:00,
2013-06-06 00:46:00,67.7,64.0,29.80,North,355,0.0,0.0,88,0.00,,,0.00,Wunderground v.1.15,2013-06-06 04:46:00,
2013-06-06 00:52:00,67.6,63.9,29.80,North,355,0.0,0.0,88,0.00,,,0.00,Wunderground v.1.15,2013-06-06 04:52:00,
2013-06-06 00:58:00,67.6,63.9,29.79,North,355,0.0,0.0,88,0.00,,,0.00,Wunderground v.1.15,2013-06-06 04:58:00,
2013-06-06 01:04:00,67.6,64.2,29.79,North,355,0.0,0.0,89,0.00,,,0.00,Wunderground v.1.15,2013-06-06 05:04:00,
2013-06-06 01:10:00,67.5,64.1,29.79,North,355,0.0,0.0,89,0.00,,,0.00,Wunderground v.1.15,2013-06-06 05:10:00,
2013-06-06 01:16:00,67.5,64.1,29.78,North,355,0.0,0.0,89,0.00,,,0.00,Wunderground v.1.15,2013-06-06 05:16:00,
2013-06-06 01:22:00,67.5,64.1,29.78,North,355,0.0,0.0,89,0.00,,,0.00,Wunderground v.1.15,2013-06-06 05:22:00,
2013-06-06 01:28:00,67.4,64.0,29.78,North,355,0.0,0.0,89,0.00,,,0.00,Wunderground v.1.15,2013-06-06 05:28:00,
2013-06-06 01:34:00,67.3,63.9,29.78,North,355,0.0,0.0,89,0.00,,,0.00,Wunderground v.1.15,2013-06-06 05:34:00,
2013-06-06 01:40:00,67.3,63.9,29.78,North,355,0.0,0.0,89,0.00,,,0.00,Wunderground v.1.15,2013-06-06 05:40:00,
2013-06-06 01:46:00,67.3,63.9,29.78,North,355,0.0,0.0,89,0.00,,,0.00,Wunderground v.1.15,2013-06-06 05:46:00,
2013-06-06 01:52:00,67.3,63.6,29.78,North,355,0.0,0.0,88,0.00,,,0.00,Wunderground v.1.15,2013-06-06 05:52:00,
2013-06-06 01:58:00,67.3,63.9,29.77,North,355,0.0,0.0,89,0.00,,,0.00,Wunderground v.1.15,2013-06-06 05:58:00,
2013-06-06 02:04:00,67.3,63.9,29.77,North,355,0.0,0.0,89,0.00,,,0.00,Wunderground v.1.15,2013-06-06 06:04:00,
2013-06-06 02:10:00,67.3,63.9,29.78,North,355,0.0,0.0,89,0.00,,,0.00,Wunderground v.1.15,2013-06-06 06:10:00,
2013-06-06 02:16:00,67.3,63.9,29.78,North,355,0.0,0.0,89,0.00,,,0.00,Wunderground v.1.15,2013-06-06 06:16:00,
2013-06-06 02:22:00,67.3,63.6,29.78,North,355,0.0,0.0,88,0.00,,,0.00,Wunderground v.1.15,2013-06-06 06:22:00,
2013-06-06 02:28:00,67.4,64.0,29.78,North,355,0.0,0.0,89,0.00,,,0.00,Wunderground v.1.15,2013-06-06 06:28:00,
2013-06-06 02:34:00,67.4,63.7,29.78,North,355,0.0,0.0,88,0.00,,,0.00,Wunderground v.1.15,2013-06-06 06:34:00,
2013-06-06 02:40:00,67.4,63.7,29.77,North,355,0.0,0.0,88,0.00,,,0.00,Wunderground v.1.15,2013-06-06 06:40:00,
2013-06-06 02:46:00,67.5,64.1,29.77,North,355,0.0,0.0,89,0.00,,,0.00,Wunderground v.1.15,2013-06-06 06:46:00,
2013-06-06 02:52:00,67.6,63.9,29.77,North,355,0.0,0.0,88,0.00,,,0.00,Wunderground v.1.15,2013-06-06 06:52:00,
2013-06-06 02:58:00,67.5,63.8,29.76,North,355,0.0,0.0,88,0.00,,,0.00,Wunderground v.1.15,2013-06-06 06:58:00,
2013-06-06 03:04:00,67.5,63.8,29.76,North,355,0.0,0.0,88,0.00,,,0.00,Wunderground v.1.15,2013-06-06 07:04:00,
2013-06-06 03:10:00,67.6,63.9,29.76,North,355,0.0,0.0,88,0.00,,,0.00,Wunderground v.1.15,2013-06-06 07:10:00,
2013-06-06 03:16:00,67.6,63.9,29.76,North,355,0.0,0.0,88,0.00,,,0.00,Wunderground v.1.15,2013-06-06 07:16:00,
2013-06-06 03:22:00,67.5,63.8,29.75,North,355,0.0,0.0,88,0.00,,,0.00,Wunderground v.1.15,2013-06-06 07:22:00,
2013-06-06 03:28:00,67.5,63.8,29.75,North,355,0.0,0.0,88,0.00,,,0.00,Wunderground v.1.15,2013-06-06 07:28:00,
2013-06-06 03:34:00,67.4,64.0,29.75,North,355,0.0,0.0,89,0.00,,,0.00,Wunderground v.1.15,2013-06-06 07:34:00,
2013-06-06 03:40:00,67.4,64.4,29.75,North,355,0.0,0.0,90,0.00,,,0.00,Wunderground v.1.15,2013-06-06 07:40:00,
2013-06-06 03:46:00,67.3,64.3,29.75,North,355,0.0,0.0,90,0.00,,,0.00,Wunderground v.1.15,2013-06-06 07:46:00,
2013-06-06 03:52:00,67.1,64.1,29.75,North,355,0.0,0.0,90,0.00,,,0.00,Wunderground v.1.15,2013-06-06 07:52:00,
2013-06-06 03:58:00,67.0,64.0,29.75,North,355,0.0,0.0,90,0.00,,,0.00,Wunderground v.1.15,2013-06-06 07:58:00,
2013-06-06 04:04:00,67.0,64.0,29.74,North,355,0.0,0.0,90,0.00,,,0.00,Wunderground v.1.15,2013-06-06 08:04:00,
2013-06-06 04:10:00,66.9,63.9,29.75,North,355,0.0,0.0,90,0.00,,,0.00,Wunderground v.1.15,2013-06-06 08:10:00,
2013-06-06 04:16:00,67.0,64.0,29.74,North,355,0.0,0.0,90,0.00,,,0.00,Wunderground v.1.15,2013-06-06 08:16:00,
2013-06-06 04:22:00,67.0,64.0,29.74,North,355,0.0,0.0,90,0.00,,,0.00,Wunderground v.1.15,2013-06-06 08:22:00,
2013-06-06 04:28:00,66.9,63.9,29.74,North,355,0.0,0.0,90,0.00,,,0.00,Wunderground v.1.15,2013-06-06 08:28:00,
2013-06-06 04:34:00,66.9,63.9,29.74,North,355,0.0,0.0,90,0.00,,,0.00,Wunderground v.1.15,2013-06-06 08:34:00,
2013-06-06 04:40:00,66.8,63.8,29.74,North,355,0.0,0.0,90,0.00,,,0.00,Wunderground v.1.15,2013-06-06 08:40:00,
2013-06-06 04:46:00,66.7,63.7,29.74,North,355,0.0,0.0,90,0.00,,,0.00,Wunderground v.1.15,2013-06-06 08:46:00,
2013-06-06 04:52:00,66.7,64.0,29.73,North,355,0.0,0.0,91,0.00,,,0.00,Wunderground v.1.15,2013-06-06 08:52:00,
2013-06-06 04:58:00,66.7,64.0,29.73,North,355,0.0,0.0,91,0.00,,,0.01,Wunderground v.1.15,2013-06-06 08:58:00,
2013-06-06 05:04:00,66.7,64.0,29.73,North,355,0.0,0.0,91,0.00,,,0.01,Wunderground v.1.15,2013-06-06 09:04:00,
2013-06-06 05:10:00,66.6,63.9,29.73,North,355,0.0,0.0,91,0.00,,,0.01,Wunderground v.1.15,2013-06-06 09:10:00,
2013-06-06 05:16:00,66.5,64.1,29.73,North,355,0.0,0.0,92,0.04,,,0.02,Wunderground v.1.15,2013-06-06 09:16:00,
2013-06-06 05:22:00,66.4,64.0,29.73,North,355,0.0,0.0,92,0.06,,,0.03,Wunderground v.1.15,2013-06-06 09:22:00,
2013-06-06 05:28:00,66.3,63.9,29.73,North,355,0.0,0.0,92,0.06,,,0.03,Wunderground v.1.15,2013-06-06 09:28:00,
2013-06-06 05:34:00,66.2,64.1,29.73,North,355,0.0,0.0,93,0.04,,,0.03,Wunderground v.1.15,2013-06-06 09:34:00,
2013-06-06 05:40:00,66.1,64.0,29.73,North,355,0.0,0.0,93,0.04,,,0.04,Wunderground v.1.15,2013-06-06 09:40:00,
2013-06-06 05:46:00,66.1,64.0,29.73,North,355,0.0,0.0,93,0.04,,,0.04,Wunderground v.1.15,2013-06-06 09:46:00,
2013-06-06 05:52:00,66.1,64.3,29.73,North,355,0.0,0.0,94,0.00,,,0.04,Wunderground v.1.15,2013-06-06 09:52:00,
2013-06-06 05:58:00,66.1,64.3,29.73,WSW,241,0.0,0.0,94,0.00,,,0.04,Wunderground v.1.15,2013-06-06 09:58:00,
2013-06-06 06:04:00,66.2,64.4,29.73,ENE,57,0.0,0.0,94,0.00,,,0.04,Wunderground v.1.15,2013-06-06 10:04:00,
2013-06-06 06:10:00,66.3,64.8,29.73,ENE,57,0.0,0.0,95,0.00,,,0.05,Wunderground v.1.15,2013-06-06 10:10:00,
2013-06-06 06:16:00,66.5,65.0,29.73,ENE,57,0.0,0.0,95,0.00,,,0.05,Wunderground v.1.15,2013-06-06 10:16:00,
2013-06-06 06:22:00,66.9,65.4,29.73,ENE,57,0.0,0.0,95,0.00,,,0.05,Wunderground v.1.15,2013-06-06 10:22:00,
2013-06-06 06:28:00,67.2,66.0,29.73,ENE,57,0.0,0.0,96,0.00,,,0.05,Wunderground v.1.15,2013-06-06 10:28:00,
2013-06-06 06:34:00,67.2,66.0,29.73,ENE,57,0.0,0.0,96,0.00,,,0.05,Wunderground v.1.15,2013-06-06 10:34:00,
2013-06-06 06:40:00,67.4,66.2,29.73,ENE,57,0.0,0.0,96,0.00,,,0.05,Wunderground v.1.15,2013-06-06 10:40:00,
2013-06-06 06:48:00,67.5,66.3,29.73,ENE,61,0.0,0.0,96,0.00,,,0.05,Wunderground v.1.15,2013-06-06 10:48:00,
2013-06-06 06:54:00,67.6,66.4,29.73,ENE,61,0.0,0.0,96,0.00,,,0.05,Wunderground v.1.15,2013-06-06 10:54:00,
2013-06-06 07:00:00,67.7,66.5,29.73,ENE,61,0.0,0.0,96,0.00,,,0.05,Wunderground v.1.15,2013-06-06 11:00:00,
2013-06-06 07:06:00,67.7,66.5,29.73,ENE,61,0.0,0.0,96,0.00,,,0.05,Wunderground v.1.15,2013-06-06 11:06:00,
2013-06-06 07:12:00,67.7,66.5,29.73,ENE,61,0.0,0.0,96,0.00,,,0.05,Wunderground v.1.15,2013-06-06 11:12:00,
2013-06-06 07:18:00,67.7,66.5,29.73,ENE,61,0.0,0.0,96,0.00,,,0.05,Wunderground v.1.15,2013-06-06 11:18:00,
2013-06-06 07:24:00,67.7,66.5,29.73,ENE,61,0.0,0.0,96,0.00,,,0.05,Wunderground v.1.15,2013-06-06 11:24:00,
2013-06-06 07:30:00,67.7,66.5,29.74,ESE,110,0.0,0.0,96,0.00,,,0.05,Wunderground v.1.15,2013-06-06 11:30:00,
2013-06-06 07:36:00,67.7,66.5,29.74,ESE,111,0.0,0.0,96,0.00,,,0.05,Wunderground v.1.15,2013-06-06 11:36:00,
2013-06-06 07:42:00,67.7,66.5,29.74,ESE,121,0.0,1.0,96,0.00,,,0.05,Wunderground v.1.15,2013-06-06 11:42:00,
2013-06-06 07:48:00,67.7,66.5,29.75,ESE,121,0.0,1.0,96,0.00,,,0.05,Wunderground v.1.15,2013-06-06 11:48:00,
2013-06-06 07:54:00,67.8,66.6,29.75,ESE,121,0.0,0.0,96,0.00,,,0.05,Wunderground v.1.15,2013-06-06 11:54:00,
2013-06-06 08:00:00,67.8,66.6,29.74,ESE,121,0.0,0.0,96,0.00,,,0.05,Wunderground v.1.15,2013-06-06 12:00:00,
2013-06-06 08:06:00,67.8,66.6,29.75,ESE,122,0.0,2.0,96,0.00,,,0.05,Wunderground v.1.15,2013-06-06 12:06:00,
2013-06-06 08:12:00,67.7,66.5,29.75,West,272,1.0,1.0,96,0.00,,,0.05,Wunderground v.1.15,2013-06-06 12:12:00,
2013-06-06 08:18:00,67.6,66.4,29.75,West,266,1.0,3.0,96,0.28,,,0.07,Wunderground v.1.15,2013-06-06 12:18:00,
2013-06-06 08:24:00,67.4,66.2,29.75,West,263,1.0,1.0,96,0.12,,,0.08,Wunderground v.1.15,2013-06-06 12:24:00,
2013-06-06 08:30:00,67.4,66.2,29.75,West,263,0.0,0.0,96,0.12,,,0.09,Wunderground v.1.15,2013-06-06 12:30:00,
2013-06-06 08:36:00,67.4,66.2,29.75,West,263,0.0,3.0,96,0.07,,,0.09,Wunderground v.1.15,2013-06-06 12:36:00,
2013-06-06 08:42:00,67.4,66.2,29.75,SW,222,1.0,4.0,96,0.04,,,0.09,Wunderground v.1.15,2013-06-06 12:42:00,
2013-06-06 08:48:00,67.4,66.2,29.75,SW,227,2.0,4.0,96,0.00,,,0.09,Wunderground v.1.15,2013-06-06 12:48:00,
2013-06-06 08:54:00,67.5,66.3,29.75,SW,227,1.0,2.0,96,0.00,,,0.09,Wunderground v.1.15,2013-06-06 12:54:00,
2013-06-06 09:00:00,67.5,66.3,29.76,SW,227,1.0,2.0,96,0.00,,,0.09,Wunderground v.1.15,2013-06-06 13:00:00,
2013-06-06 09:06:00,67.6,66.4,29.75,SW,227,0.0,2.0,96,0.00,,,0.09,Wunderground v.1.15,2013-06-06 13:06:00,
2013-06-06 09:12:00,67.6,66.4,29.76,NW,319,0.0,1.0,96,0.00,,,0.09,Wunderground v.1.15,2013-06-06 13:12:00,
2013-06-06 09:18:00,67.9,67.0,29.76,NW,316,1.0,2.0,97,0.00,,,0.09,Wunderground v.1.15,2013-06-06 13:18:00,
2013-06-06 09:24:00,68.2,67.3,29.76,NW,316,1.0,1.0,97,0.00,,,0.09,Wunderground v.1.15,2013-06-06 13:24:00,
2013-06-06 09:30:00,68.5,67.6,29.76,South,189,0.0,0.0,97,0.00,,,0.09,Wunderground v.1.15,2013-06-06 13:30:00,
2013-06-06 09:36:00,68.5,67.6,29.76,NNW,346,0.0,0.0,97,0.00,,,0.09,Wunderground v.1.15,2013-06-06 13:36:00,
2013-06-06 09:42:00,68.5,67.6,29.76,NNW,346,0.0,1.0,97,0.00,,,0.09,Wunderground v.1.15,2013-06-06 13:42:00,
2013-06-06 09:48:00,68.5,67.6,29.76,NNW,346,0.0,1.0,97,0.00,,,0.09,Wunderground v.1.15,2013-06-06 13:48:00,
2013-06-06 09:54:00,68.8,67.9,29.76,NNW,346,0.0,0.0,97,0.00,,,0.09,Wunderground v.1.15,2013-06-06 13:54:00,
2013-06-06 10:00:00,69.3,68.4,29.76,NNW,346,0.0,0.0,97,0.00,,,0.09,Wunderground v.1.15,2013-06-06 14:00:00,
2013-06-06 10:06:00,69.6,68.7,29.75,NNW,346,0.0,2.0,97,0.00,,,0.09,Wunderground v.1.15,2013-06-06 14:06:00,
2013-06-06 10:12:00,69.6,68.4,29.75,NNW,346,0.0,0.0,96,0.00,,,0.09,Wunderground v.1.15,2013-06-06 14:12:00,
2013-06-06 10:18:00,69.9,68.7,29.75,NNW,346,0.0,0.0,96,0.00,,,0.09,Wunderground v.1.15,2013-06-06 14:18:00,
2013-06-06 10:24:00,70.1,68.9,29.76,NNW,346,0.0,0.0,96,0.00,,,0.09,Wunderground v.1.15,2013-06-06 14:24:00,
2013-06-06 10:30:00,70.1,68.6,29.75,NNW,331,0.0,0.0,95,0.00,,,0.09,Wunderground v.1.15,2013-06-06 14:30:00,
2013-06-06 10:38:00,70.2,68.4,29.75,NNW,329,0.0,0.0,94,0.00,,,0.09,Wunderground v.1.15,2013-06-06 14:38:00,
2013-06-06 10:44:00,70.3,68.5,29.75,NW,323,0.0,3.0,94,0.00,,,0.09,Wunderground v.1.15,2013-06-06 14:44:00,
2013-06-06 10:50:00,70.6,68.8,29.75,NW,323,0.0,2.0,94,0.00,,,0.09,Wunderground v.1.15,2013-06-06 14:50:00,
2013-06-06 10:56:00,71.0,69.2,29.76,NW,323,1.0,2.0,94,0.00,,,0.09,Wunderground v.1.15,2013-06-06 14:56:00,
2013-06-06 11:02:00,71.3,69.2,29.76,NW,323,0.0,1.0,93,0.00,,,0.09,Wunderground v.1.15,2013-06-06 15:02:00,
2013-06-06 11:08:00,71.5,69.1,29.75,NW,318,1.0,4.0,92,0.00,,,0.09,Wunderground v.1.15,2013-06-06 15:08:00,
2013-06-06 11:14:00,71.5,68.4,29.75,NW,318,1.0,3.0,90,0.00,,,0.09,Wunderground v.1.15,2013-06-06 15:14:00,
2013-06-06 11:20:00,71.5,68.1,29.75,NW,318,1.0,1.0,89,0.00,,,0.09,Wunderground v.1.15,2013-06-06 15:20:00,
2013-06-06 11:26:00,71.6,68.5,29.75,NW,318,0.0,1.0,90,0.00,,,0.09,Wunderground v.1.15,2013-06-06 15:26:00,
2013-06-06 11:32:00,71.8,68.7,29.75,NW,318,0.0,0.0,90,0.00,,,0.09,Wunderground v.1.15,2013-06-06 15:32:00,
2013-06-06 11:38:00,71.7,68.3,29.76,NW,318,0.0,3.0,89,0.00,,,0.09,Wunderground v.1.15,2013-06-06 15:38:00,
2013-06-06 11:44:00,71.6,68.5,29.76,NW,317,1.0,1.0,90,0.00,,,0.09,Wunderground v.1.15,2013-06-06 15:44:00,
2013-06-06 11:50:00,71.3,67.9,29.77,NW,313,0.0,0.0,89,0.00,,,0.09,Wunderground v.1.15,2013-06-06 15:50:00,
2013-06-06 11:56:00,71.3,68.2,29.77,NW,317,0.0,0.0,90,0.00,,,0.09,Wunderground v.1.15,2013-06-06 15:56:00,
2013-06-06 12:02:00,71.5,68.7,29.77,NW,317,0.0,0.0,91,0.00,,,0.09,Wunderground v.1.15,2013-06-06 16:02:00,
2013-06-06 12:08:00,71.6,68.5,29.77,NW,317,0.0,0.0,90,0.00,,,0.09,Wunderground v.1.15,2013-06-06 16:08:00,
2013-06-06 12:14:00,71.7,68.0,29.77,NW,317,0.0,2.0,88,0.00,,,0.09,Wunderground v.1.15,2013-06-06 16:14:00,
2013-06-06 12:20:00,71.9,68.2,29.75,NW,317,0.0,0.0,88,0.00,,,0.09,Wunderground v.1.15,2013-06-06 16:20:00,
2013-06-06 12:26:00,72.4,69.0,29.75,NW,315,0.0,2.0,89,0.00,,,0.09,Wunderground v.1.15,2013-06-06 16:26:00,
2013-06-06 12:32:00,72.8,68.4,29.75,NW,315,0.0,0.0,86,0.00,,,0.09,Wunderground v.1.15,2013-06-06 16:32:00,
2013-06-06 12:38:00,73.7,68.9,29.76,NE,40,0.0,0.0,85,0.00,,,0.09,Wunderground v.1.15,2013-06-06 16:38:00,
2013-06-06 12:44:00,74.6,69.8,29.76,NE,40,0.0,0.0,85,0.00,,,0.09,Wunderground v.1.15,2013-06-06 16:44:00,
2013-06-06 12:50:00,75.1,69.2,29.76,NE,40,0.0,0.0,82,0.00,,,0.09,Wunderground v.1.15,2013-06-06 16:50:00,
2013-06-06 12:56:00,75.4,69.5,29.76,NE,40,0.0,0.0,82,0.00,,,0.09,Wunderground v.1.15,2013-06-06 16:56:00,
2013-06-06 13:02:00,76.0,69.0,29.76,NE,40,0.0,0.0,79,0.00,,,0.09,Wunderground v.1.15,2013-06-06 17:02:00,
2013-06-06 13:08:00,76.6,68.1,29.76,North,5,1.0,1.0,75,0.00,,,0.09,Wunderground v.1.15,2013-06-06 17:08:00,
2013-06-06 13:14:00,76.8,67.9,29.75,NNE,17,1.0,2.0,74,0.00,,,0.09,Wunderground v.1.15,2013-06-06 17:14:00,
2013-06-06 13:20:00,77.0,68.1,29.75,NNE,17,1.0,2.0,74,0.00,,,0.09,Wunderground v.1.15,2013-06-06 17:20:00,
2013-06-06 13:26:00,77.1,66.6,29.75,NNE,17,1.0,2.0,70,0.00,,,0.09,Wunderground v.1.15,2013-06-06 17:26:00,
2013-06-06 13:32:00,77.3,69.1,29.75,NNE,17,0.0,0.0,76,0.00,,,0.09,Wunderground v.1.15,2013-06-06 17:32:00,
2013-06-06 13:38:00,77.3,68.4,29.75,NNE,17,0.0,1.0,74,0.00,,,0.09,Wunderground v.1.15,2013-06-06 17:38:00,
2013-06-06 13:44:00,77.6,69.4,29.76,North,5,0.0,1.0,76,0.00,,,0.09,Wunderground v.1.15,2013-06-06 17:44:00,
2013-06-06 13:50:00,77.2,68.3,29.75,WNW,292,1.0,1.0,74,0.00,,,0.09,Wunderground v.1.15,2013-06-06 17:50:00,
2013-06-06 13:58:00,77.4,68.5,29.75,WNW,298,1.0,1.0,74,0.00,,,0.09,Wunderground v.1.15,2013-06-06 17:58:00,
2013-06-06 14:04:00,77.6,69.0,29.75,WNW,294,1.0,1.0,75,0.00,,,0.09,Wunderground v.1.15,2013-06-06 18:04:00,
2013-06-06 14:10:00,77.6,67.0,29.75,WNW,291,0.0,0.0,70,0.00,,,0.09,Wunderground v.1.15,2013-06-06 18:10:00,
2013-06-06 14:16:00,77.9,68.5,29.75,WNW,291,1.0,4.0,73,0.00,,,0.09,Wunderground v.1.15,2013-06-06 18:16:00,
2013-06-06 14:22:00,78.2,69.2,29.75,WSW,248,1.0,1.0,74,0.00,,,0.09,Wunderground v.1.15,2013-06-06 18:22:00,
2013-06-06 14:28:00,78.6,68.4,29.75,West,272,1.0,1.0,71,0.00,,,0.09,Wunderground v.1.15,2013-06-06 18:28:00,
2013-06-06 14:34:00,78.9,68.3,29.75,WNW,303,1.0,1.0,70,0.00,,,0.09,Wunderground v.1.15,2013-06-06 18:34:00,
2013-06-06 14:40:00,79.1,68.1,29.75,NW,311,1.0,1.0,69,0.00,,,0.09,Wunderground v.1.15,2013-06-06 18:40:00,
2013-06-06 14:46:00,79.3,68.2,29.74,NW,312,0.0,3.0,69,0.00,,,0.09,Wunderground v.1.15,2013-06-06 18:46:00,
2013-06-06 14:52:00,79.3,68.7,29.74,WNW,287,1.0,2.0,70,0.00,,,0.09,Wunderground v.1.15,2013-06-06 18:52:00,
2013-06-06 14:58:00,79.4,68.3,29.74,WNW,300,1.0,2.0,69,0.00,,,0.09,Wunderground v.1.15,2013-06-06 18:58:00,
2013-06-06 15:04:00,79.7,67.3,29.74,WNW,299,0.0,1.0,66,0.00,,,0.09,Wunderground v.1.15,2013-06-06 19:04:00,
2013-06-06 15:10:00,79.8,67.9,29.74,NW,322,1.0,1.0,67,0.00,,,0.09,Wunderground v.1.15,2013-06-06 19:10:00,
2013-06-06 15:16:00,79.9,66.2,29.74,NW,317,1.0,1.0,63,0.00,,,0.09,Wunderground v.1.15,2013-06-06 19:16:00,
2013-06-06 15:22:00,79.8,67.4,29.74,NE,37,0.0,0.0,66,0.00,,,0.09,Wunderground v.1.15,2013-06-06 19:22:00,
2013-06-06 15:28:00,79.9,68.0,29.74,North,355,1.0,2.0,67,0.00,,,0.09,Wunderground v.1.15,2013-06-06 19:28:00,
2013-06-06 15:34:00,80.4,68.4,29.74,WSW,247,1.0,2.0,67,0.00,,,0.09,Wunderground v.1.15,2013-06-06 19:34:00,
2013-06-06 15:40:00,80.8,67.5,29.74,WNW,282,0.0,2.0,64,0.00,,,0.09,Wunderground v.1.15,2013-06-06 19:40:00,
2013-06-06 15:46:00,80.9,68.9,29.74,SW,226,1.0,2.0,67,0.00,,,0.09,Wunderground v.1.15,2013-06-06 19:46:00,
2013-06-06 15:50:00,80.9,67.6,29.74,West,279,1.0,4.0,64,0.00,,,0.09,Wunderground v.1.15,2013-06-06 19:50:00,
2013-06-06 15:56:00,80.6,69.1,29.74,NW,311,1.0,4.0,68,0.00,,,0.09,Wunderground v.1.15,2013-06-06 19:56:00,
2013-06-06 16:02:00,80.5,67.2,29.74,NNW,331,1.0,1.0,64,0.00,,,0.09,Wunderground v.1.15,2013-06-06 20:02:00,
2013-06-06 16:08:00,80.2,65.5,29.74,NNW,329,1.0,1.0,61,0.00,,,0.09,Wunderground v.1.15,2013-06-06 20:08:00,
2013-06-06 16:14:00,80.2,67.8,29.75,NW,319,0.0,1.0,66,0.00,,,0.09,Wunderground v.1.15,2013-06-06 20:14:00,
2013-06-06 16:20:00,80.2,66.9,29.75,NNW,333,1.0,1.0,64,0.00,,,0.09,Wunderground v.1.15,2013-06-06 20:20:00,
2013-06-06 16:26:00,80.4,68.4,29.74,NNW,332,0.0,1.0,67,0.00,,,0.09,Wunderground v.1.15,2013-06-06 20:26:00,
2013-06-06 16:32:00,80.2,67.4,29.75,NNW,331,0.0,0.0,65,0.00,,,0.09,Wunderground v.1.15,2013-06-06 20:32:00,
2013-06-06 16:38:00,79.9,66.6,29.75,NNW,331,0.0,0.0,64,0.00,,,0.09,Wunderground v.1.15,2013-06-06 20:38:00,
2013-06-06 16:44:00,79.7,66.4,29.74,North,349,0.0,0.0,64,0.00,,,0.09,Wunderground v.1.15,2013-06-06 20:44:00,
2013-06-06 16:50:00,79.7,65.5,29.74,NW,324,0.0,0.0,62,0.00,,,0.09,Wunderground v.1.15,2013-06-06 20:50:00,
2013-06-06 16:56:00,79.9,66.6,29.74,NW,317,0.0,0.0,64,0.00,,,0.09,Wunderground v.1.15,2013-06-06 20:56:00,
2013-06-06 17:02:00,80.2,67.8,29.74,West,274,1.0,1.0,66,0.00,,,0.09,Wunderground v.1.15,2013-06-06 21:02:00,
2013-06-06 17:08:00,80.4,67.1,29.74,West,275,1.0,2.0,64,0.00,,,0.09,Wunderground v.1.15,2013-06-06 21:08:00,
2013-06-06 17:14:00,80.4,66.6,29.73,North,355,0.0,1.0,63,0.00,,,0.09,Wunderground v.1.15,2013-06-06 21:14:00,
2013-06-06 17:20:00,80.4,66.2,29.73,NW,323,0.0,0.0,62,0.00,,,0.09,Wunderground v.1.15,2013-06-06 21:20:00,
2013-06-06 17:26:00,79.9,67.1,29.73,NW,317,0.0,1.0,65,0.00,,,0.09,Wunderground v.1.15,2013-06-06 21:26:00,
2013-06-06 17:32:00,79.7,66.9,29.73,NW,317,0.0,0.0,65,0.00,,,0.09,Wunderground v.1.15,2013-06-06 21:32:00,
2013-06-06 17:38:00,80.1,66.8,29.73,NW,317,0.0,0.0,64,0.00,,,0.09,Wunderground v.1.15,2013-06-06 21:38:00,
2013-06-06 17:44:00,80.4,64.8,29.73,NW,306,0.0,0.0,59,0.00,,,0.09,Wunderground v.1.15,2013-06-06 21:44:00,
2013-06-06 17:50:00,80.6,64.5,29.73,NW,306,1.0,1.0,58,0.00,,,0.09,Wunderground v.1.15,2013-06-06 21:50:00,
2013-06-06 17:56:00,80.8,65.1,29.73,WNW,294,1.0,1.0,59,0.00,,,0.09,Wunderground v.1.15,2013-06-06 21:56:00,
2013-06-06 18:02:00,81.0,66.8,29.73,WNW,298,1.0,1.0,62,0.00,,,0.09,Wunderground v.1.15,2013-06-06 22:02:00,
2013-06-06 18:08:00,81.2,66.0,29.73,NW,319,0.0,1.0,60,0.00,,,0.09,Wunderground v.1.15,2013-06-06 22:08:00,
2013-06-06 18:14:00,81.3,66.1,29.73,WNW,291,1.0,1.0,60,0.00,,,0.09,Wunderground v.1.15,2013-06-06 22:14:00,
2013-06-06 18:20:00,81.1,65.9,29.74,WNW,286,1.0,1.0,60,0.00,,,0.09,Wunderground v.1.15,2013-06-06 22:20:00,
2013-06-06 18:26:00,81.1,66.8,29.73,WNW,287,0.0,1.0,62,0.00,,,0.09,Wunderground v.1.15,2013-06-06 22:26:00,
2013-06-06 18:32:00,80.9,65.7,29.73,WNW,295,0.0,1.0,60,0.00,,,0.09,Wunderground v.1.15,2013-06-06 22:32:00,
2013-06-06 18:38:00,80.3,65.1,29.73,NW,325,1.0,1.0,60,0.00,,,0.09,Wunderground v.1.15,2013-06-06 22:38:00,
2013-06-06 18:44:00,80.2,66.5,29.73,NW,325,0.0,1.0,63,0.00,,,0.09,Wunderground v.1.15,2013-06-06 22:44:00,
2013-06-06 18:50:00,80.2,67.4,29.73,NW,323,0.0,0.0,65,0.00,,,0.09,Wunderground v.1.15,2013-06-06 22:50:00,
2013-06-06 18:56:00,80.3,67.5,29.72,WSW,240,0.0,0.0,65,0.00,,,0.09,Wunderground v.1.15,2013-06-06 22:56:00,
2013-06-06 19:02:00,80.2,66.5,29.72,North,355,0.0,1.0,63,0.00,,,0.09,Wunderground v.1.15,2013-06-06 23:02:00,
2013-06-06 19:08:00,79.8,66.5,29.73,North,355,0.0,4.0,64,0.00,,,0.09,Wunderground v.1.15,2013-06-06 23:08:00,
2013-06-06 19:14:00,79.5,66.3,29.73,North,5,0.0,0.0,64,0.00,,,0.09,Wunderground v.1.15,2013-06-06 23:14:00,
2013-06-06 19:20:00,79.2,66.0,29.73,North,5,0.0,0.0,64,0.00,,,0.09,Wunderground v.1.15,2013-06-06 23:20:00,
2013-06-06 19:26:00,78.9,65.7,29.73,West,266,0.0,0.0,64,0.00,,,0.09,Wunderground v.1.15,2013-06-06 23:26:00,
2013-06-06 19:32:00,78.7,65.5,29.72,West,268,0.0,0.0,64,0.00,,,0.09,Wunderground v.1.15,2013-06-06 23:32:00,
2013-06-06 19:38:00,78.5,66.2,29.72,West,268,0.0,0.0,66,0.00,,,0.09,Wunderground v.1.15,2013-06-06 23:38:00,
2013-06-06 19:44:00,78.4,65.7,29.72,West,268,0.0,0.0,65,0.00,,,0.09,Wunderground v.1.15,2013-06-06 23:44:00,
2013-06-06 19:50:00,78.5,66.2,29.72,West,268,0.0,0.0,66,0.00,,,0.09,Wunderground v.1.15,2013-06-06 23:50:00,
2013-06-06 19:56:00,78.7,66.4,29.72,West,268,0.0,0.0,66,0.00,,,0.09,Wunderground v.1.15,2013-06-06 23:56:00,
2013-06-06 20:02:00,78.7,65.5,29.72,NNW,327,0.0,0.0,64,0.00,,,0.09,Wunderground v.1.15,2013-06-07 00:02:00,
2013-06-06 20:08:00,78.4,65.2,29.72,NNW,327,0.0,0.0,64,0.00,,,0.09,Wunderground v.1.15,2013-06-07 00:08:00,
2013-06-06 20:14:00,78.1,65.4,29.73,NNW,327,0.0,0.0,65,0.00,,,0.09,Wunderground v.1.15,2013-06-07 00:14:00,
2013-06-06 20:20:00,77.8,66.8,29.73,NNW,327,0.0,0.0,69,0.00,,,0.09,Wunderground v.1.15,2013-06-07 00:20:00,
2013-06-06 20:26:00,77.2,66.2,29.73,NNW,327,0.0,0.0,69,0.00,,,0.09,Wunderground v.1.15,2013-06-07 00:26:00,
2013-06-06 20:32:00,76.7,66.2,29.73,NNW,327,0.0,0.0,70,0.00,,,0.09,Wunderground v.1.15,2013-06-07 00:32:00,
2013-06-06 20:38:00,76.2,66.1,29.72,NNW,327,0.0,0.0,71,0.00,,,0.09,Wunderground v.1.15,2013-06-07 00:38:00,
2013-06-06 20:44:00,75.8,67.7,29.73,NNW,327,0.0,0.0,76,0.00,,,0.09,Wunderground v.1.15,2013-06-07 00:44:00,
2013-06-06 20:50:00,75.3,66.8,29.73,NNW,327,0.0,0.0,75,0.00,,,0.09,Wunderground v.1.15,2013-06-07 00:50:00,
2013-06-06 20:56:00,74.7,66.6,29.73,NNW,327,0.0,0.0,76,0.00,,,0.09,Wunderground v.1.15,2013-06-07 00:56:00,
2013-06-06 21:02:00,73.9,66.6,29.73,NNW,327,0.0,0.0,78,0.00,,,0.09,Wunderground v.1.15,2013-06-07 01:02:00,
2013-06-06 21:08:00,73.0,65.4,29.73,NNW,327,0.0,0.0,77,0.00,,,0.09,Wunderground v.1.15,2013-06-07 01:08:00,
2013-06-06 21:14:00,72.4,65.9,29.73,NNW,327,0.0,0.0,80,0.00,,,0.09,Wunderground v.1.15,2013-06-07 01:14:00,
2013-06-06 21:20:00,71.8,65.3,29.74,NNW,327,0.0,0.0,80,0.00,,,0.09,Wunderground v.1.15,2013-06-07 01:20:00,
2013-06-06 21:28:00,71.3,65.2,29.74,NNW,327,0.0,0.0,81,0.00,,,0.09,Wunderground v.1.15,2013-06-07 01:28:00,
2013-06-06 21:34:00,71.0,64.9,29.74,NNW,327,0.0,0.0,81,0.00,,,0.09,Wunderground v.1.15,2013-06-07 01:34:00,
2013-06-06 21:40:00,70.7,64.9,29.74,NNW,327,0.0,0.0,82,0.00,,,0.09,Wunderground v.1.15,2013-06-07 01:40:00,
2013-06-06 21:46:00,70.3,64.9,29.74,NNW,327,0.0,0.0,83,0.00,,,0.09,Wunderground v.1.15,2013-06-07 01:46:00,
2013-06-06 21:52:00,69.9,64.8,29.74,NNW,327,0.0,0.0,84,0.00,,,0.09,Wunderground v.1.15,2013-06-07 01:52:00,
2013-06-06 21:58:00,69.5,64.8,29.75,NNW,327,0.0,0.0,85,0.00,,,0.09,Wunderground v.1.15,2013-06-07 01:58:00,
2013-06-06 22:04:00,69.1,64.4,29.75,NNW,327,0.0,0.0,85,0.00,,,0.09,Wunderground v.1.15,2013-06-07 02:04:00,
2013-06-06 22:10:00,68.8,64.8,29.75,NNW,327,0.0,0.0,87,0.00,,,0.09,Wunderground v.1.15,2013-06-07 02:10:00,
2013-06-06 22:16:00,68.5,64.5,29.75,NNW,327,0.0,0.0,87,0.00,,,0.09,Wunderground v.1.15,2013-06-07 02:16:00,
2013-06-06 22:22:00,68.2,64.5,29.75,NNW,327,0.0,0.0,88,0.00,,,0.09,Wunderground v.1.15,2013-06-07 02:22:00,
2013-06-06 22:28:00,68.0,64.6,29.75,NNW,327,0.0,0.0,89,0.00,,,0.09,Wunderground v.1.15,2013-06-07 02:28:00,
2013-06-06 22:34:00,67.8,64.1,29.75,NNW,327,0.0,0.0,88,0.00,,,0.09,Wunderground v.1.15,2013-06-07 02:34:00,
2013-06-06 22:40:00,67.6,64.2,29.75,NNW,327,0.0,0.0,89,0.00,,,0.09,Wunderground v.1.15,2013-06-07 02:40:00,
2013-06-06 22:48:00,67.3,64.3,29.75,NNW,327,0.0,0.0,90,0.00,,,0.09,Wunderground v.1.15,2013-06-07 02:48:00,
2013-06-06 22:54:00,67.2,64.2,29.75,NNW,327,0.0,0.0,90,0.00,,,0.09,Wunderground v.1.15,2013-06-07 02:54:00,
2013-06-06 23:00:00,67.0,64.0,29.75,NNW,327,0.0,0.0,90,0.00,,,0.09,Wunderground v.1.15,2013-06-07 03:00:00,
2013-06-06 23:08:00,66.6,63.9,29.75,NNW,327,0.0,0.0,91,0.00,,,0.09,Wunderground v.1.15,2013-06-07 03:08:00,
2013-06-06 23:14:00,66.5,64.1,29.75,NNW,327,0.0,0.0,92,0.00,,,0.09,Wunderground v.1.15,2013-06-07 03:14:00,
2013-06-06 23:20:00,66.5,64.4,29.75,NNW,327,0.0,0.0,93,0.00,,,0.09,Wunderground v.1.15,2013-06-07 03:20:00,
2013-06-06 23:26:00,66.5,64.4,29.75,NNW,327,0.0,0.0,93,0.00,,,0.09,Wunderground v.1.15,2013-06-07 03:26:00,
2013-06-06 23:32:00,66.3,64.2,29.75,NNW,327,0.0,0.0,93,0.00,,,0.09,Wunderground v.1.15,2013-06-07 03:32:00,
2013-06-06 23:38:00,66.2,64.1,29.75,NNW,327,0.0,0.0,93,0.00,,,0.09,Wunderground v.1.15,2013-06-07 03:38:00,
2013-06-06 23:44:00,66.1,64.0,29.75,NNW,327,0.0,0.0,93,0.00,,,0.09,Wunderground v.1.15,2013-06-07 03:44:00,
2013-06-06 23:50:00,66.1,64.0,29.76,NNW,327,0.0,0.0,93,0.00,,,0.09,Wunderground v.1.15,2013-06-07 03:50:00,
2013-06-06 23:56:00,66.2,64.4,29.75,NNW,327,0.0,0.0,94,0.00,,,0.09,Wunderground v.1.15,2013-06-07 03:56:00,